Suakin — ZCIL — position and weather

sailwx.info

Track history (hours):
 
Tides and Currents Weather Stations Pressure Air Temp Water Temp Dewpoint Dewpoint Depression Visibility Wind Speed Wind Dir Waves Ship Positions

Suakin

Last reported at 2015-Aug-03 16:05 UTC. Time now 2015-Aug-03 17:14 UTC.
Position N 36°51' E 025°32'.

Length 37 m; draft 2.5 m.

Type: Pleasure craft. MMSI: 319897000.

Date/timePositionNaut miles runAvg speedWind from/ knotsBaromVisibWave heightAir tempDewpointWater temp
2015-Aug-03 16:05N 36°51' E 025°32'0 0.0
2015-Aug-03 15:27N 36°51' E 025°32'0 0.0
2015-Aug-03 13:12N 36°51' E 025°32'0 0.0
2015-Aug-03 12:12N 36°51' E 025°32'0 0.1
2015-Aug-03 11:31N 36°51' E 025°32'0 0.0
2015-Aug-03 08:32N 36°51' E 025°32'2 1.6
2015-Aug-03 07:30N 36°50' E 025°31'23 1.1
2015-Aug-02 09:31N 36°28' E 025°22'3 3.6
2015-Aug-02 08:33N 36°26' E 025°25'0 0.1
2015-Aug-02 07:33N 36°26' E 025°25'3 2.9
2015-Aug-02 06:33N 36°23' E 025°23'2 2.5
2015-Aug-02 05:33N 36°21' E 025°24'0 0.0
2015-Aug-02 04:33N 36°21' E 025°24'0 0.0
2015-Aug-02 03:33N 36°21' E 025°24'0 0.0
2015-Aug-02 02:33N 36°21' E 025°24'0 0.0
2015-Aug-02 01:33N 36°21' E 025°24'0 0.0
2015-Aug-02 00:32N 36°21' E 025°24'0 0.0
2015-Aug-01 23:32N 36°21' E 025°24'0 0.0
2015-Aug-01 22:33N 36°21' E 025°24'0 0.0
2015-Aug-01 21:33N 36°21' E 025°24'0 0.0
2015-Aug-01 20:33N 36°21' E 025°24'0 0.0
2015-Aug-01 19:33N 36°21' E 025°24'0 0.0
2015-Aug-01 18:32N 36°21' E 025°24'0 0.0
2015-Aug-01 17:32N 36°21' E 025°24'0 0.0
2015-Aug-01 16:32N 36°21' E 025°24'0 0.0
2015-Aug-01 15:32N 36°21' E 025°24'0 0.0
2015-Aug-01 14:33N 36°21' E 025°24'0 0.0
2015-Aug-01 13:33N 36°21' E 025°24'0 0.0
2015-Aug-01 12:33N 36°21' E 025°24'0 0.0
2015-Aug-01 11:33N 36°21' E 025°24'0 0.0
2015-Aug-01 10:33N 36°21' E 025°24'0 0.0
2015-Aug-01 09:33N 36°21' E 025°24'0 0.0
2015-Aug-01 08:33N 36°21' E 025°24'0 0.0
2015-Aug-01 07:33N 36°21' E 025°24'0 0.0
2015-Aug-01 06:33N 36°21' E 025°24'0 0.0
2015-Aug-01 05:33N 36°21' E 025°24'0 0.0
2015-Aug-01 04:33N 36°21' E 025°24'0 0.0
2015-Aug-01 03:32N 36°21' E 025°24'0 0.0
2015-Aug-01 02:32N 36°21' E 025°24'0 0.0
2015-Aug-01 01:33N 36°21' E 025°24'0 0.0
2015-Aug-01 00:33N 36°21' E 025°24'0 0.0
2015-Jul-31 23:32N 36°21' E 025°24'0 0.0
2015-Jul-31 22:32N 36°21' E 025°24'0 0.0
2015-Jul-31 21:32N 36°21' E 025°24'0 0.0
2015-Jul-31 20:32N 36°21' E 025°24'0 0.0
2015-Jul-31 19:33N 36°21' E 025°24'0 0.0
2015-Jul-31 18:32N 36°21' E 025°24'0 0.0
2015-Jul-31 17:33N 36°21' E 025°24'0 0.0
2015-Jul-31 16:32N 36°21' E 025°24'0 0.0
2015-Jul-31 15:33N 36°21' E 025°24'0 0.0
2015-Jul-31 14:32N 36°21' E 025°24'0 0.0
2015-Jul-31 13:33N 36°21' E 025°24'0 0.0
2015-Jul-31 12:33N 36°21' E 025°24'0 0.0
2015-Jul-31 11:33N 36°21' E 025°24'0 0.0
2015-Jul-31 10:33N 36°21' E 025°24'0 0.0
2015-Jul-31 09:23N 36°21' E 025°24'0 0.0
2015-Jul-31 08:33N 36°21' E 025°24'0 0.0
2015-Jul-31 07:32N 36°21' E 025°24'0 0.0
2015-Jul-31 06:33N 36°21' E 025°24'0 0.0
2015-Jul-31 05:33N 36°21' E 025°24'0 0.0
2015-Jul-31 04:33N 36°21' E 025°24'0 0.0
2015-Jul-31 03:32N 36°21' E 025°24'0 0.0
2015-Jul-31 02:32N 36°21' E 025°24'0 0.0
2015-Jul-31 01:33N 36°21' E 025°24'0 0.0
2015-Jul-31 00:33N 36°21' E 025°24'0 0.0
2015-Jul-30 23:33N 36°21' E 025°24'0 0.0
2015-Jul-30 22:32N 36°21' E 025°24'0 0.0
2015-Jul-30 21:32N 36°21' E 025°24'0 0.0
2015-Jul-30 20:33N 36°21' E 025°24'0 0.0
2015-Jul-30 19:32N 36°21' E 025°24'0 0.0
2015-Jul-30 18:33N 36°21' E 025°24'0 0.0
2015-Jul-30 17:33N 36°21' E 025°24'0 0.0
2015-Jul-30 16:32N 36°21' E 025°24'0 0.0
2015-Jul-30 15:32N 36°21' E 025°24'0 0.0
2015-Jul-30 14:31N 36°21' E 025°24'0 0.0
2015-Jul-30 13:32N 36°21' E 025°24'0 0.0
2015-Jul-30 12:32N 36°21' E 025°24'0 0.0
2015-Jul-30 11:33N 36°21' E 025°24'0 0.0
2015-Jul-30 10:33N 36°21' E 025°24'4 3.7
2015-Jul-30 09:33N 36°24' E 025°25'1 1.1
2015-Jul-30 08:33N 36°26' E 025°25'0 0.2
2015-Jul-30 07:33N 36°25' E 025°25'2 1.9
2015-Jul-30 06:34N 36°24' E 025°25'3 2.8
2015-Jul-30 05:31N 36°21' E 025°23'0 0.0
2015-Jul-30 04:33N 36°21' E 025°23'0 0.0
2015-Jul-30 03:33N 36°21' E 025°24'0 0.0
2015-Jul-30 02:33N 36°21' E 025°24'0 0.0
2015-Jul-30 01:32N 36°21' E 025°24'0 0.0
2015-Jul-30 00:32N 36°21' E 025°24'0 0.0
2015-Jul-29 23:33N 36°21' E 025°24'0 0.0
2015-Jul-29 22:32N 36°21' E 025°24'0 0.0
2015-Jul-29 21:33N 36°21' E 025°24'0 0.0
2015-Jul-29 20:30N 36°21' E 025°24'0 0.0
2015-Jul-29 19:33N 36°21' E 025°24'0 0.0
2015-Jul-29 18:32N 36°21' E 025°24'0 0.0
2015-Jul-29 17:32N 36°21' E 025°24'0 0.0
2015-Jul-29 16:32N 36°21' E 025°24'0 0.0
2015-Jul-29 15:33N 36°21' E 025°24'0 0.0
2015-Jul-29 14:33N 36°21' E 025°24'0 0.0
2015-Jul-29 13:32N 36°21' E 025°24'0 0.0
2015-Jul-29 12:32N 36°21' E 025°24'0 0.0
2015-Jul-29 11:30N 36°21' E 025°24'0 0.0
2015-Jul-29 10:32N 36°21' E 025°24'0 0.0
2015-Jul-29 09:32N 36°21' E 025°24'1 1.0
2015-Jul-29 08:33N 36°20' E 025°25'3 3.1
2015-Jul-29 07:33N 36°21' E 025°28'8 7.6
2015-Jul-29 06:33N 36°20' E 025°38'7 6.9
2015-Jul-29 05:32N 36°21' E 025°47'0 0.0
2015-Jul-29 04:32N 36°21' E 025°47'0 0.0
2015-Jul-29 03:33N 36°21' E 025°47'0 0.0
2015-Jul-29 02:33N 36°21' E 025°47'0 0.0
2015-Jul-29 01:32N 36°21' E 025°47'0 0.0
2015-Jul-29 00:32N 36°21' E 025°47'0 0.0
2015-Jul-28 23:32N 36°21' E 025°47'0 0.0
2015-Jul-28 22:33N 36°21' E 025°47'0 0.0
2015-Jul-28 21:33N 36°21' E 025°47'0 0.0
2015-Jul-28 20:33N 36°21' E 025°47'0 0.0
2015-Jul-28 19:32N 36°21' E 025°47'0 0.0
2015-Jul-28 18:33N 36°21' E 025°47'0 0.0
2015-Jul-28 17:33N 36°21' E 025°47'0 0.0
2015-Jul-28 16:30N 36°21' E 025°47'0 0.0
2015-Jul-28 15:32N 36°21' E 025°47'0 0.0
2015-Jul-28 14:32N 36°21' E 025°47'0 0.0
2015-Jul-28 13:32N 36°21' E 025°47'0 0.0
2015-Jul-28 12:32N 36°21' E 025°47'7 1.3
2015-Jul-28 07:26N 36°21' E 025°55'1011.0
2015-Jul-28 06:33N 36°25' E 026°06'1111.1
2015-Jul-28 05:33N 36°29' E 026°19'3 0.2
2015-Jul-27 12:24N 36°31' E 026°22'8 9.2
2015-Jul-27 11:33N 36°36' E 026°15'7 1.7
2015-Jul-27 07:31N 36°37' E 026°23'8 0.3
2015-Jul-26 07:20N 36°36' E 026°34'911.2
2015-Jul-26 06:33N 36°37' E 026°44'  
Track history (hours):
 
Tides and Currents Weather Stations Pressure Air Temp Water Temp Dewpoint Dewpoint Depression Visibility Wind Speed Wind Dir Waves Ship Positions

Suakin

Last reported at 2015-Aug-03 16:05 UTC. Time now 2015-Aug-03 17:14 UTC.
Position N 36°51' E 025°32'.

Length 37 m; draft 2.5 m.

Type: Pleasure craft. MMSI: 319897000.

Date/timePositionNaut miles runAvg speedWind from/ knotsBaromVisibWave heightAir tempDewpointWater temp
2015-Aug-03 16:05N 36°51' E 025°32'0 0.0
2015-Aug-03 15:27N 36°51' E 025°32'0 0.0
2015-Aug-03 13:12N 36°51' E 025°32'0 0.0
2015-Aug-03 12:12N 36°51' E 025°32'0 0.1
2015-Aug-03 11:31N 36°51' E 025°32'0 0.0
2015-Aug-03 08:32N 36°51' E 025°32'2 1.6
2015-Aug-03 07:30N 36°50' E 025°31'23 1.1
2015-Aug-02 09:31N 36°28' E 025°22'3 3.6
2015-Aug-02 08:33N 36°26' E 025°25'0 0.1
2015-Aug-02 07:33N 36°26' E 025°25'3 2.9
2015-Aug-02 06:33N 36°23' E 025°23'2 2.5
2015-Aug-02 05:33N 36°21' E 025°24'0 0.0
2015-Aug-02 04:33N 36°21' E 025°24'0 0.0
2015-Aug-02 03:33N 36°21' E 025°24'0 0.0
2015-Aug-02 02:33N 36°21' E 025°24'0 0.0
2015-Aug-02 01:33N 36°21' E 025°24'0 0.0
2015-Aug-02 00:32N 36°21' E 025°24'0 0.0
2015-Aug-01 23:32N 36°21' E 025°24'0 0.0
2015-Aug-01 22:33N 36°21' E 025°24'0 0.0
2015-Aug-01 21:33N 36°21' E 025°24'0 0.0
2015-Aug-01 20:33N 36°21' E 025°24'0 0.0
2015-Aug-01 19:33N 36°21' E 025°24'0 0.0
2015-Aug-01 18:32N 36°21' E 025°24'0 0.0
2015-Aug-01 17:32N 36°21' E 025°24'0 0.0
2015-Aug-01 16:32N 36°21' E 025°24'0 0.0
2015-Aug-01 15:32N 36°21' E 025°24'0 0.0
2015-Aug-01 14:33N 36°21' E 025°24'0 0.0
2015-Aug-01 13:33N 36°21' E 025°24'0 0.0
2015-Aug-01 12:33N 36°21' E 025°24'0 0.0
2015-Aug-01 11:33N 36°21' E 025°24'0 0.0
2015-Aug-01 10:33N 36°21' E 025°24'0 0.0
2015-Aug-01 09:33N 36°21' E 025°24'0 0.0
2015-Aug-01 08:33N 36°21' E 025°24'0 0.0
2015-Aug-01 07:33N 36°21' E 025°24'0 0.0
2015-Aug-01 06:33N 36°21' E 025°24'0 0.0
2015-Aug-01 05:33N 36°21' E 025°24'0 0.0
2015-Aug-01 04:33N 36°21' E 025°24'0 0.0
2015-Aug-01 03:32N 36°21' E 025°24'0 0.0
2015-Aug-01 02:32N 36°21' E 025°24'0 0.0
2015-Aug-01 01:33N 36°21' E 025°24'0 0.0
2015-Aug-01 00:33N 36°21' E 025°24'0 0.0
2015-Jul-31 23:32N 36°21' E 025°24'0 0.0
2015-Jul-31 22:32N 36°21' E 025°24'0 0.0
2015-Jul-31 21:32N 36°21' E 025°24'0 0.0
2015-Jul-31 20:32N 36°21' E 025°24'0 0.0
2015-Jul-31 19:33N 36°21' E 025°24'0 0.0
2015-Jul-31 18:32N 36°21' E 025°24'0 0.0
2015-Jul-31 17:33N 36°21' E 025°24'0 0.0
2015-Jul-31 16:32N 36°21' E 025°24'0 0.0
2015-Jul-31 15:33N 36°21' E 025°24'0 0.0
2015-Jul-31 14:32N 36°21' E 025°24'0 0.0
2015-Jul-31 13:33N 36°21' E 025°24'0 0.0
2015-Jul-31 12:33N 36°21' E 025°24'0 0.0
2015-Jul-31 11:33N 36°21' E 025°24'0 0.0
2015-Jul-31 10:33N 36°21' E 025°24'0 0.0
2015-Jul-31 09:23N 36°21' E 025°24'0 0.0
2015-Jul-31 08:33N 36°21' E 025°24'0 0.0
2015-Jul-31 07:32N 36°21' E 025°24'0 0.0
2015-Jul-31 06:33N 36°21' E 025°24'0 0.0
2015-Jul-31 05:33N 36°21' E 025°24'0 0.0
2015-Jul-31 04:33N 36°21' E 025°24'0 0.0
2015-Jul-31 03:32N 36°21' E 025°24'0 0.0
2015-Jul-31 02:32N 36°21' E 025°24'0 0.0
2015-Jul-31 01:33N 36°21' E 025°24'0 0.0
2015-Jul-31 00:33N 36°21' E 025°24'0 0.0
2015-Jul-30 23:33N 36°21' E 025°24'0 0.0
2015-Jul-30 22:32N 36°21' E 025°24'0 0.0
2015-Jul-30 21:32N 36°21' E 025°24'0 0.0
2015-Jul-30 20:33N 36°21' E 025°24'0 0.0
2015-Jul-30 19:32N 36°21' E 025°24'0 0.0
2015-Jul-30 18:33N 36°21' E 025°24'0 0.0
2015-Jul-30 17:33N 36°21' E 025°24'0 0.0
2015-Jul-30 16:32N 36°21' E 025°24'0 0.0
2015-Jul-30 15:32N 36°21' E 025°24'0 0.0
2015-Jul-30 14:31N 36°21' E 025°24'0 0.0
2015-Jul-30 13:32N 36°21' E 025°24'0 0.0
2015-Jul-30 12:32N 36°21' E 025°24'0 0.0
2015-Jul-30 11:33N 36°21' E 025°24'0 0.0
2015-Jul-30 10:33N 36°21' E 025°24'4 3.7
2015-Jul-30 09:33N 36°24' E 025°25'1 1.1
2015-Jul-30 08:33N 36°26' E 025°25'0 0.2
2015-Jul-30 07:33N 36°25' E 025°25'2 1.9
2015-Jul-30 06:34N 36°24' E 025°25'3 2.8
2015-Jul-30 05:31N 36°21' E 025°23'0 0.0
2015-Jul-30 04:33N 36°21' E 025°23'0 0.0
2015-Jul-30 03:33N 36°21' E 025°24'0 0.0
2015-Jul-30 02:33N 36°21' E 025°24'0 0.0
2015-Jul-30 01:32N 36°21' E 025°24'0 0.0
2015-Jul-30 00:32N 36°21' E 025°24'0 0.0
2015-Jul-29 23:33N 36°21' E 025°24'0 0.0
2015-Jul-29 22:32N 36°21' E 025°24'0 0.0
2015-Jul-29 21:33N 36°21' E 025°24'0 0.0
2015-Jul-29 20:30N 36°21' E 025°24'0 0.0
2015-Jul-29 19:33N 36°21' E 025°24'0 0.0
2015-Jul-29 18:32N 36°21' E 025°24'0 0.0
2015-Jul-29 17:32N 36°21' E 025°24'0 0.0
2015-Jul-29 16:32N 36°21' E 025°24'0 0.0
2015-Jul-29 15:33N 36°21' E 025°24'0 0.0
2015-Jul-29 14:33N 36°21' E 025°24'0 0.0
2015-Jul-29 13:32N 36°21' E 025°24'0 0.0
2015-Jul-29 12:32N 36°21' E 025°24'0 0.0
2015-Jul-29 11:30N 36°21' E 025°24'0 0.0
2015-Jul-29 10:32N 36°21' E 025°24'0 0.0
2015-Jul-29 09:32N 36°21' E 025°24'1 1.0
2015-Jul-29 08:33N 36°20' E 025°25'3 3.1
2015-Jul-29 07:33N 36°21' E 025°28'8 7.6
2015-Jul-29 06:33N 36°20' E 025°38'7 6.9
2015-Jul-29 05:32N 36°21' E 025°47'0 0.0
2015-Jul-29 04:32N 36°21' E 025°47'0 0.0
2015-Jul-29 03:33N 36°21' E 025°47'0 0.0
2015-Jul-29 02:33N 36°21' E 025°47'0 0.0
2015-Jul-29 01:32N 36°21' E 025°47'0 0.0
2015-Jul-29 00:32N 36°21' E 025°47'0 0.0
2015-Jul-28 23:32N 36°21' E 025°47'0 0.0
2015-Jul-28 22:33N 36°21' E 025°47'0 0.0
2015-Jul-28 21:33N 36°21' E 025°47'0 0.0
2015-Jul-28 20:33N 36°21' E 025°47'0 0.0
2015-Jul-28 19:32N 36°21' E 025°47'0 0.0
2015-Jul-28 18:33N 36°21' E 025°47'0 0.0
2015-Jul-28 17:33N 36°21' E 025°47'0 0.0
2015-Jul-28 16:30N 36°21' E 025°47'0 0.0
2015-Jul-28 15:32N 36°21' E 025°47'0 0.0
2015-Jul-28 14:32N 36°21' E 025°47'0 0.0
2015-Jul-28 13:32N 36°21' E 025°47'0 0.0
2015-Jul-28 12:32N 36°21' E 025°47'7 1.3
2015-Jul-28 07:26N 36°21' E 025°55'1011.0
2015-Jul-28 06:33N 36°25' E 026°06'1111.1
2015-Jul-28 05:33N 36°29' E 026°19'3 0.2
2015-Jul-27 12:24N 36°31' E 026°22'8 9.2
2015-Jul-27 11:33N 36°36' E 026°15'7 1.7
2015-Jul-27 07:31N 36°37' E 026°23'8 0.3
2015-Jul-26 07:20N 36°36' E 026°34'911.2
2015-Jul-26 06:33N 36°37' E 026°44'  

Dump ship's entire track history